Walnut, IA (51577)

8:07 AM CDT on September 16, 2019 (GMT -0500)
Walnut | | Change Station
Active Advisory: Flood Warning

Elev 1339 ft 41.46 °N, 95.23 °W | Updated 17 seconds ago

Clear
Clear
70 °F
Feels Like 70 °F
N
3.1
Wind Variable Wind from SSE
Gusts 3.4 mph

Today
High -- | Low -- °F
--% Chance of Precip.
Yesterday
High -- | Low -- °F
Precip. -- in
Pressure 30.05 in
Visibility 4.0 miles
Clouds Clear
Dew Point 68 °F
Humidity 94%
Rainfall 0.00 in
Snow Depth Not available.
7:02 AM 7:28 PM
Waning Gibbous, 95% visible
METAR KHNR 161255Z AUTO 00000KT 4SM BR CLR 19/19 A3005 RMK AO2 PWINO
Pressure 30.05 in
Visibility 4.0 miles
Clouds Clear
Dew Point 68 °F
Humidity 94%
Rainfall 0.00 in
Snow Depth Not available.
7:02 AM 7:28 PM
Waning Gibbous, 95% visible
METAR KHNR 161255Z AUTO 00000KT 4SM BR CLR 19/19 A3005 RMK AO2 PWINO

Get Your Daily Forecast Email!

Thanks for signing up!

Be on the lookout for a verification email in your inbox.

You'll start receiving severe weather alerts in your inbox..

×

10-Day Weather Forecast

Almanac

Astronomy

Sep. 16, 2019 Rise Set
Actual Time
Civil Twilight
Nautical Twilight
Astronomical Twilight
Moon
Length of Visible Light
Length of Day
Tomorrow will be .
, % of the Moon is Illuminated

Today's Extremes

State Highs State Lows

Community

WunderPhotos

Category 6

Welcome to Category 6. This is the collective home for Weather Underground's featured writeups by Dr. Jeff Masters (right), Bob Henson (left), Chris Burt, and other regular contributors.

Nearby

Air Quality

  Air Quality AQ Index Pollutant
Not available.

Snow Depth

Station Depth Elevation

Earthquake Activity

City Distance Mag. Time & Date
Minimum magnitude displayed is 2.5.

Coastal Water Temperatures

Place Temperature

Stations

Nearby Weather Stations

Station Location Temp. Windchill Dew Point Humidity Wind Precip. Elev Updated Type
                   

Watches & Warnings

Flood Warning
Issued: 8:28 PM CDT Sep. 15, 2019 – National Weather Service

The Flood Warning continues for
the Missouri River at Omaha.
* From Tuesday afternoon to Wednesday September 25... or until the
warning is cancelled.
* At 8:00 PM Sunday the stage was 26.6 feet... or 2.4 feet below
flood stage.
* Flood stage is 29.0 feet.
* Minor flooding is forecast.
* Forecast... rise above flood stage by Tuesday afternoon and continue
to rise to near 30.2 feet by early Friday afternoon.


Lat... Lon 4142 9602 4142 9583 4107 9574 4106 9591
      4132 9595



828 PM CDT sun Sep 15 2019

The Flood Warning continues for
the Missouri River near Blair.
* From this evening until further notice... or until the warning is
cancelled.
* At 8:00 PM Sunday the stage was 26.0 feet... or 0.5 feet below
flood stage.
* Flood stage is 26.5 feet.
* Moderate flooding is forecast.
* Forecast... rise above flood stage overnight and continue to rise
to near 29.1 feet by Thursday evening.


Lat... Lon 4180 9624 4180 9595 4142 9583 4142 9602
      4168 9626